Time;durP1;ratioP1;P1;durP2;ratioP2;P2;SDS_P1;SDS_P2;PMS_P1;PMS_P2;Temp;Humidity;BMP_temperature;BMP_pressure;BME280_temperature;BME280_humidity;BME280_pressure;Samples;Min_cycle;Max_cycle;Signal;HPM_P1;HPM_P2
2024/01/19 00:04:10;;;;;;;10.93;9.82;;;;;;;-1.34;100.00;100714.09;10196588;28;20045;-70
2024/01/19 00:09:07;;;;;;;12.40;7.80;;;;;;;-1.23;100.00;100725.00;10198187;28;20050;-69
2024/01/19 00:14:04;;;;;;;10.15;7.65;;;;;;;-1.19;100.00;100740.41;10196781;28;20529;-69
2024/01/19 00:19:00;;;;;;;9.95;7.22;;;;;;;-1.26;100.00;100726.31;10197242;28;20042;-70
2024/01/19 00:23:57;;;;;;;9.65;8.80;;;;;;;-1.32;100.00;100743.38;10197155;28;20050;-69
2024/01/19 00:28:55;;;;;;;11.25;9.57;;;;;;;-1.41;100.00;100750.16;10197015;28;20629;-69
2024/01/19 00:33:51;;;;;;;13.25;10.13;;;;;;;-1.57;100.00;100749.03;10196934;28;20100;-69
2024/01/19 00:38:48;;;;;;;10.27;9.40;;;;;;;-1.55;100.00;100737.03;10196289;28;20119;-70
2024/01/19 00:43:44;;;;;;;10.38;9.55;;;;;;;-1.43;100.00;100741.53;10195655;28;20069;-69
2024/01/19 00:48:41;;;;;;;13.00;10.02;;;;;;;-1.38;100.00;100738.97;10196235;28;20497;-69
2024/01/19 00:53:37;;;;;;;10.95;9.88;;;;;;;-1.45;100.00;100722.19;10195710;28;20472;-69
2024/01/19 00:58:39;;;;;;;10.18;9.30;;;;;;;-1.56;100.00;100716.59;10195745;28;20081;-72
2024/01/19 01:03:35;;;;;;;10.93;9.82;;;;;;;-1.60;100.00;100720.84;10195715;28;20042;-70
2024/01/19 01:08:35;;;;;;;10.48;9.57;;;;;;;-1.66;100.00;100724.44;10194889;28;20038;-69
2024/01/19 01:13:32;;;;;;;10.55;9.27;;;;;;;-1.42;100.00;100748.53;10195204;28;20038;-70
2024/01/19 01:18:29;;;;;;;8.90;8.20;;;;;;;-1.35;100.00;100760.75;10193350;28;20065;-69
2024/01/19 01:23:25;;;;;;;9.00;8.27;;;;;;;-1.37;100.00;100762.03;10195428;28;20076;-70
2024/01/19 01:28:22;;;;;;;9.25;8.45;;;;;;;-1.35;100.00;100792.94;10192247;28;20042;-70
2024/01/19 01:33:19;;;;;;;12.02;8.35;;;;;;;-1.40;100.00;100832.25;10194603;28;20034;-69
2024/01/19 01:38:16;;;;;;;10.60;9.73;;;;;;;-1.59;100.00;100816.28;10193544;28;20038;-69
2024/01/19 01:43:21;;;;;;;11.75;9.90;;;;;;;-1.59;100.00;100816.28;10194558;28;20112;-70
2024/01/19 01:48:23;;;;;;;9.88;8.98;;;;;;;-1.53;100.00;100756.38;10184699;28;20531;-70
2024/01/19 01:53:20;;;;;;;10.05;9.13;;;;;;;-1.59;100.00;100751.94;10193046;28;20057;-69
2024/01/19 01:58:18;;;;;;;9.55;8.85;;;;;;;-1.64;100.00;100746.47;10193056;28;20065;-70
2024/01/19 02:03:14;;;;;;;10.32;9.30;;;;;;;-1.75;100.00;100750.78;10192666;28;20096;-70
2024/01/19 02:08:11;;;;;;;10.95;9.43;;;;;;;-1.74;100.00;100738.19;10191665;28;20107;-70
2024/01/19 02:13:08;;;;;;;10.90;9.13;;;;;;;-1.77;100.00;100744.03;10192299;28;20046;-70
2024/01/19 02:18:05;;;;;;;11.80;9.45;;;;;;;-1.79;100.00;100732.75;10186223;28;20461;-69
2024/01/19 02:23:03;;;;;;;10.68;8.73;;;;;;;-1.71;100.00;100746.59;10192566;28;20505;-69
2024/01/19 02:28:00;;;;;;;10.90;8.20;;;;;;;-1.69;100.00;100741.00;10191687;28;20052;-70
2024/01/19 02:32:56;;;;;;;7.95;7.35;;;;;;;-1.65;100.00;100750.19;10192415;28;20421;-70
2024/01/19 02:37:53;;;;;;;8.40;7.63;;;;;;;-1.65;100.00;100766.28;10191128;28;20057;-70
2024/01/19 02:42:49;;;;;;;7.85;7.30;;;;;;;-1.56;100.00;100759.50;10183766;28;20502;-70
2024/01/19 02:47:46;;;;;;;7.60;7.10;;;;;;;-1.57;100.00;100763.25;10191858;28;20629;-69
2024/01/19 02:52:43;;;;;;;7.90;7.20;;;;;;;-1.61;100.00;100767.44;10191596;28;20072;-70
2024/01/19 02:57:39;;;;;;;9.05;7.38;;;;;;;-1.59;100.00;100776.06;10191699;28;20045;-70
2024/01/19 03:02:36;;;;;;;7.88;7.18;;;;;;;-1.52;100.00;100787.50;10191103;28;20112;-69
2024/01/19 03:07:32;;;;;;;8.23;7.50;;;;;;;-1.58;100.00;100788.44;10191486;28;20053;-70
2024/01/19 03:12:29;;;;;;;10.25;6.95;;;;;;;-1.56;100.00;100801.59;10191450;28;20042;-69
2024/01/19 03:17:27;;;;;;;10.27;7.13;;;;;;;-1.45;100.00;100808.00;10190592;28;20093;-70
2024/01/19 03:22:23;;;;;;;7.47;6.88;;;;;;;-1.36;100.00;100833.41;10190821;28;20108;-70
2024/01/19 03:27:20;;;;;;;8.13;7.50;;;;;;;-1.35;100.00;100827.00;10193135;28;20038;-69
2024/01/19 03:32:17;;;;;;;8.48;7.60;;;;;;;-1.32;100.00;100807.75;10200364;28;20041;-70
2024/01/19 03:37:14;;;;;;;10.75;7.90;;;;;;;-1.26;100.00;100814.84;10198833;28;20056;-69
2024/01/19 03:42:10;;;;;;;7.55;6.90;;;;;;;-1.31;100.00;100820.09;10198263;28;20405;-69
2024/01/19 03:47:06;;;;;;;7.75;7.07;;;;;;;-1.28;100.00;100830.34;10194404;28;20046;-69
2024/01/19 03:52:05;;;;;;;8.43;7.75;;;;;;;-1.37;100.00;100810.31;10198947;28;20042;-69
2024/01/19 03:57:04;;;;;;;9.85;8.35;;;;;;;-1.40;100.00;100803.56;10196565;28;20449;-69
2024/01/19 04:02:01;;;;;;;9.68;8.10;;;;;;;-1.41;100.00;100803.81;10189959;28;20647;-69
2024/01/19 04:06:57;;;;;;;9.15;8.45;;;;;;;-1.35;100.00;100818.94;10197587;28;20497;-70
2024/01/19 04:11:54;;;;;;;10.63;8.25;;;;;;;-1.26;100.00;100825.56;10197981;28;20042;-70
2024/01/19 04:16:51;;;;;;;13.20;8.18;;;;;;;-1.19;100.00;100834.31;10197352;28;20137;-69
2024/01/19 04:21:47;;;;;;;8.68;8.02;;;;;;;-1.15;100.00;100835.47;10196927;28;20130;-70
2024/01/19 04:26:43;;;;;;;7.80;7.22;;;;;;;-1.13;100.00;100833.38;10195606;28;20055;-70
2024/01/19 04:31:40;;;;;;;9.25;8.20;;;;;;;-1.13;100.00;100836.06;10191315;28;20101;-69
2024/01/19 04:36:37;;;;;;;8.70;8.10;;;;;;;-1.12;100.00;100823.44;10194401;28;20052;-70
2024/01/19 04:41:33;;;;;;;15.95;8.63;;;;;;;-1.10;100.00;100838.25;10196672;28;20057;-70
2024/01/19 04:46:30;;;;;;;8.75;8.07;;;;;;;-1.13;100.00;100852.16;10193276;28;20516;-69
2024/01/19 04:51:26;;;;;;;9.00;8.25;;;;;;;-1.09;100.00;100845.28;10189794;28;20050;-70
2024/01/19 04:56:23;;;;;;;10.00;8.90;;;;;;;-1.16;100.00;100863.38;10195434;28;20559;-70
2024/01/19 05:01:19;;;;;;;9.70;8.70;;;;;;;-1.14;100.00;100874.69;10187311;28;20050;-70
2024/01/19 05:06:16;;;;;;;9.27;8.52;;;;;;;-1.17;100.00;100871.66;10193987;28;20038;-69
2024/01/19 05:11:13;;;;;;;9.45;8.43;;;;;;;-1.17;100.00;100885.88;10195064;28;20060;-70
2024/01/19 05:16:10;;;;;;;9.70;8.85;;;;;;;-1.22;100.00;100883.09;10194338;28;20049;-69
2024/01/19 05:21:07;;;;;;;9.18;8.50;;;;;;;-1.23;100.00;100897.56;10194591;28;20077;-70
2024/01/19 05:26:08;;;;;;;9.70;8.82;;;;;;;-1.22;100.00;100915.28;10194675;28;20441;-70
2024/01/19 05:31:05;;;;;;;9.97;8.90;;;;;;;-1.20;100.00;100918.56;10194639;28;20054;-70
2024/01/19 05:36:01;;;;;;;9.90;9.20;;;;;;;-1.22;100.00;100930.56;10194148;28;20093;-70
2024/01/19 05:41:02;;;;;;;10.20;9.32;;;;;;;-1.27;100.00;100928.59;10194064;28;20104;-70
2024/01/19 05:45:59;;;;;;;10.05;9.35;;;;;;;-1.30;100.00;100923.66;10191727;28;20046;-70
2024/01/19 05:50:55;;;;;;;10.55;9.70;;;;;;;-1.32;100.00;100936.53;10191857;28;20579;-69
2024/01/19 05:55:52;;;;;;;11.77;9.10;;;;;;;-1.37;100.00;100914.94;10192853;28;20069;-70
2024/01/19 06:00:49;;;;;;;9.65;8.93;;;;;;;-1.31;100.00;100940.81;10194084;28;20042;-70
2024/01/19 06:05:45;;;;;;;14.63;10.18;;;;;;;-1.20;100.00;100956.09;10191785;28;20521;-70
2024/01/19 06:10:42;;;;;;;10.20;9.32;;;;;;;-1.15;100.00;100958.91;10193789;28;20399;-70
2024/01/19 06:15:38;;;;;;;12.70;9.40;;;;;;;-1.10;100.00;100977.78;10192587;28;20593;-69
2024/01/19 06:20:40;;;;;;;10.38;9.57;;;;;;;-1.13;100.00;100978.28;10192944;28;20058;-69
2024/01/19 06:25:37;;;;;;;;;;;;;;;-1.14;100.00;100998.13;10191540;28;20532;-70
2024/01/19 06:30:34;;;;;;;10.45;9.43;;;;;;;-1.06;100.00;101013.03;10193137;28;20176;-69
2024/01/19 06:35:31;;;;;;;10.18;9.27;;;;;;;-1.04;100.00;101020.84;10191411;28;20545;-70
2024/01/19 06:40:28;;;;;;;10.02;8.98;;;;;;;-1.01;100.00;101026.59;10192863;28;20046;-70
2024/01/19 06:45:24;;;;;;;9.43;8.45;;;;;;;-1.10;100.00;101034.16;10191172;28;20501;-70
2024/01/19 06:50:22;;;;;;;8.95;8.30;;;;;;;-1.14;100.00;101051.78;10192925;28;20494;-70
2024/01/19 06:55:19;;;;;;;8.80;8.07;;;;;;;-1.13;100.00;101063.34;10191459;28;20092;-71
2024/01/19 07:00:18;;;;;;;9.18;8.45;;;;;;;-1.14;100.00;101075.94;10191674;28;20073;-71
2024/01/19 07:05:16;;;;;;;8.82;8.00;;;;;;;-1.17;100.00;101087.13;10200369;28;20053;-70
2024/01/19 07:10:12;;;;;;;8.93;8.32;;;;;;;-1.18;100.00;101088.19;10200004;28;20489;-70
2024/01/19 07:15:09;;;;;;;8.45;7.85;;;;;;;-1.21;100.00;101099.34;10196435;28;20052;-70
2024/01/19 07:20:07;;;;;;;9.48;8.70;;;;;;;-1.23;100.00;101090.75;10200055;28;20119;-70
2024/01/19 07:25:03;;;;;;;9.55;8.57;;;;;;;-1.18;100.00;101098.91;10198207;28;20046;-70
2024/01/19 07:30:00;;;;;;;10.00;9.13;;;;;;;-1.22;100.00;101100.41;10200396;28;20092;-70
2024/01/19 07:34:57;;;;;;;10.15;9.45;;;;;;;-1.22;100.00;101097.72;10198532;28;20053;-70
2024/01/19 07:39:53;;;;;;;15.02;9.15;;;;;;;-1.24;100.00;101115.91;10199066;28;20073;-70
2024/01/19 07:44:50;;;;;;;9.32;8.50;;;;;;;-1.26;100.00;101123.38;10198748;28;20053;-70
2024/01/19 07:49:46;;;;;;;9.85;8.80;;;;;;;-1.27;100.00;101127.94;10198671;28;20042;-70
2024/01/19 07:54:43;;;;;;;10.27;8.98;;;;;;;-1.27;100.00;101148.59;10198403;28;20042;-70
2024/01/19 07:59:39;;;;;;;11.27;8.90;;;;;;;-1.25;100.00;101149.19;10198680;28;20050;-70
2024/01/19 08:04:38;;;;;;;10.95;8.75;;;;;;;-1.19;100.00;101164.34;10197820;28;20056;-70
2024/01/19 08:09:34;;;;;;;9.63;8.65;;;;;;;-1.18;100.00;101152.56;10197086;28;20718;-71
2024/01/19 08:14:31;;;;;;;10.40;9.43;;;;;;;-1.16;100.00;101155.84;10195809;28;20461;-70
2024/01/19 08:19:27;;;;;;;11.07;9.98;;;;;;;-1.12;100.00;101175.78;10197866;28;20276;-70
2024/01/19 08:24:24;;;;;;;10.70;9.80;;;;;;;-1.13;100.00;101181.41;10197723;28;20103;-70
2024/01/19 08:29:20;;;;;;;9.88;9.13;;;;;;;-1.11;100.00;101201.59;10197425;28;20034;-70
2024/01/19 08:34:17;;;;;;;9.77;8.80;;;;;;;-1.14;100.00;101202.06;10196188;28;20040;-70
2024/01/19 08:39:14;;;;;;;11.40;9.65;;;;;;;-1.12;100.00;101199.94;10197645;28;20072;-71
2024/01/19 08:44:10;;;;;;;11.00;9.88;;;;;;;-1.10;100.00;101208.59;10195599;28;20038;-71
2024/01/19 08:49:07;;;;;;;10.85;9.48;;;;;;;-1.11;100.00;101201.59;10196981;28;20493;-70
2024/01/19 08:54:05;;;;;;;11.00;9.90;;;;;;;-1.16;100.00;101220.25;10195233;28;20672;-70
2024/01/19 08:59:01;;;;;;;9.90;9.07;;;;;;;-1.09;100.00;101220.97;10195730;28;20057;-71
2024/01/19 09:03:58;;;;;;;11.50;9.07;;;;;;;-1.02;100.00;101228.09;10178632;28;20046;-70
2024/01/19 09:08:55;;;;;;;11.82;8.73;;;;;;;-0.96;100.00;101232.56;10194688;28;20046;-70
2024/01/19 09:13:51;;;;;;;10.88;9.32;;;;;;;-0.95;100.00;101247.63;10195220;28;20095;-70
2024/01/19 09:18:48;;;;;;;11.65;8.93;;;;;;;-0.87;100.00;101255.38;10195185;28;20465;-70
2024/01/19 09:23:44;;;;;;;8.75;8.05;;;;;;;-0.71;100.00;101281.56;10195102;28;20046;-70
2024/01/19 09:28:41;;;;;;;15.00;8.77;;;;;;;-0.75;100.00;101291.13;10194824;28;20573;-70
2024/01/19 09:33:37;;;;;;;11.70;9.10;;;;;;;-0.85;100.00;101290.84;10194825;28;20046;-71
2024/01/19 09:38:35;;;;;;;9.70;8.90;;;;;;;-0.77;100.00;101309.31;10194588;28;20486;-71
2024/01/19 09:43:34;;;;;;;10.75;9.15;;;;;;;-0.71;100.00;101303.03;10194422;28;20107;-70
2024/01/19 09:48:41;;;;;;;14.73;8.55;;;;;;;-0.71;100.00;101316.47;10194563;28;20038;-70
2024/01/19 09:53:48;;;;;;;11.95;8.98;;;;;;;-0.68;100.00;101334.81;10193547;28;20489;-71
2024/01/19 09:58:47;;;;;;;9.63;8.73;;;;;;;-0.65;100.00;101328.16;10194122;28;20088;-70
2024/01/19 10:03:43;;;;;;;10.10;9.13;;;;;;;-0.49;100.00;101321.31;10192984;28;20057;-72
2024/01/19 10:08:43;;;;;;;12.40;10.05;;;;;;;-0.57;100.00;101319.78;10193183;28;20046;-71
2024/01/19 10:13:40;;;;;;;14.18;9.07;;;;;;;-0.32;100.00;101325.00;10192791;28;20041;-71
2024/01/19 10:18:38;;;;;;;12.77;10.38;;;;;;;-0.11;100.00;101328.22;10192524;28;20049;-72
2024/01/19 10:23:35;;;;;;;11.05;9.95;;;;;;;-0.07;100.00;101342.78;10193790;28;20050;-72
2024/01/19 10:28:35;;;;;;;13.77;8.98;;;;;;;0.04;100.00;101347.38;10191692;28;20129;-73
2024/01/19 10:33:31;;;;;;;11.55;9.23;;;;;;;0.38;100.00;101353.03;10193073;28;20409;-73
2024/01/19 10:38:28;;;;;;;12.82;7.97;;;;;;;0.40;100.00;101361.69;10191379;28;20501;-73
2024/01/19 10:43:24;;;;;;;11.30;7.05;;;;;;;0.67;100.00;101366.56;10193113;28;20044;-73
2024/01/19 10:48:26;;;;;;;7.63;6.90;;;;;;;0.79;100.00;101370.06;10191736;28;20046;-73
2024/01/19 10:53:23;;;;;;;8.25;7.53;;;;;;;0.79;100.00;101370.06;10191644;28;20056;-73
2024/01/19 10:58:20;;;;;;;9.60;7.50;;;;;;;0.87;100.00;101383.16;10192366;28;20386;-74
2024/01/19 11:03:17;;;;;;;14.13;7.57;;;;;;;0.96;100.00;101380.94;10191447;28;20105;-74
2024/01/19 11:08:13;;;;;;;17.02;7.32;;;;;;;1.12;100.00;101377.50;10191747;28;20100;-73
2024/01/19 11:13:14;;;;;;;12.27;8.00;;;;;;;1.17;100.00;101376.78;10191716;28;20050;-73
2024/01/19 11:18:11;;;;;;;14.05;7.75;;;;;;;0.84;100.00;101399.81;10190507;28;20064;-73
2024/01/19 11:23:09;;;;;;;8.20;7.40;;;;;;;0.60;100.00;101404.38;10192043;28;20050;-73
2024/01/19 11:28:16;;;;;;;10.13;8.00;;;;;;;0.63;100.00;101410.09;10190311;28;20054;-73
2024/01/19 11:33:19;;;;;;;15.43;9.70;;;;;;;0.29;100.00;101419.78;10191432;28;20497;-73
2024/01/19 11:38:45;;;;;;;12.18;11.02;;;;;;;0.09;100.00;101398.59;10192144;28;20557;-73
2024/01/19 11:43:42;;;;;;;11.55;10.48;;;;;;;0.18;100.00;101391.00;10189942;28;20069;-73
2024/01/19 11:48:43;;;;;;;13.68;12.60;;;;;;;-0.08;100.00;101408.38;10193980;28;20069;-73
2024/01/19 11:53:56;;;;;;;11.93;11.00;;;;;;;-0.24;100.00;101407.97;10197378;28;20052;-73
2024/01/19 11:58:54;;;;;;;12.43;11.38;;;;;;;-0.20;100.00;101394.91;10197034;28;20046;-73
2024/01/19 12:03:54;;;;;;;12.70;11.45;;;;;;;-0.07;100.00;101389.34;10197935;28;20052;-73
2024/01/19 12:09:09;;;;;;;14.13;11.27;;;;;;;-0.08;100.00;101387.69;10196722;28;20399;-72
2024/01/19 12:14:06;;;;;;;11.93;10.48;;;;;;;0.00;100.00;101373.13;10191403;28;20049;-73
2024/01/19 12:19:02;;;;;;;12.80;11.48;;;;;;;0.13;100.00;101367.50;10197339;28;20056;-72
2024/01/19 12:23:59;;;;;;;15.30;12.30;;;;;;;0.18;100.00;101386.44;10197136;28;20046;-73
2024/01/19 12:28:56;;;;;;;17.48;11.52;;;;;;;0.23;100.00;101379.56;10195031;28;20072;-73
2024/01/19 12:33:53;;;;;;;11.23;10.43;;;;;;;0.37;100.00;101360.28;10189117;28;20050;-73
2024/01/19 12:39:05;;;;;;;12.18;11.00;;;;;;;0.57;100.00;101362.59;10196327;28;20458;-72
2024/01/19 12:44:02;;;;;;;12.60;11.25;;;;;;;0.60;100.00;101370.22;10196461;28;20049;-73
2024/01/19 12:49:02;;;;;;;11.32;10.52;;;;;;;0.43;100.00;101371.97;10196927;28;20046;-73
2024/01/19 12:53:59;;;;;;;11.38;10.43;;;;;;;0.44;100.00;101368.22;10194983;28;20133;-72
2024/01/19 12:59:08;;;;;;;12.40;11.23;;;;;;;0.28;100.00;101382.34;10188614;28;20050;-73
2024/01/19 13:04:05;;;;;;;12.07;11.18;;;;;;;0.10;100.00;101367.16;10188682;28;20073;-73
2024/01/19 13:09:04;;;;;;;12.93;11.75;;;;;;;-0.07;100.00;101370.53;10195874;28;20497;-73
2024/01/19 13:14:04;;;;;;;12.27;11.27;;;;;;;-0.22;100.00;101381.69;10194382;28;20049;-73
2024/01/19 13:19:07;;;;;;;11.85;10.98;;;;;;;-0.30;100.00;101362.38;10195155;28;20073;-73
2024/01/19 13:24:04;;;;;;;11.13;10.32;;;;;;;-0.39;100.00;101363.78;10194978;28;20041;-73
2024/01/19 13:29:00;;;;;;;12.30;11.00;;;;;;;-0.12;100.00;101375.75;10194082;28;20045;-72
2024/01/19 13:33:57;;;;;;;11.88;10.75;;;;;;;-0.10;100.00;101384.41;10194422;28;20788;-73
2024/01/19 13:38:53;;;;;;;16.17;10.85;;;;;;;-0.11;100.00;101373.91;10194085;28;20413;-72
2024/01/19 13:43:50;;;;;;;11.85;10.95;;;;;;;-0.28;100.00;101361.13;10194181;28;20042;-73
2024/01/19 13:48:46;;;;;;;14.55;10.48;;;;;;;0.42;100.00;101359.59;10193958;28;20791;-73
2024/01/19 13:53:45;;;;;;;14.75;11.25;;;;;;;0.45;100.00;101379.81;10193578;28;20068;-73
2024/01/19 13:58:41;;;;;;;13.63;12.20;;;;;;;0.17;100.00;101384.81;10193993;28;20058;-73
2024/01/19 14:03:38;;;;;;;16.88;12.00;;;;;;;0.26;100.00;101403.31;10192554;28;20045;-73
2024/01/19 14:08:35;;;;;;;15.48;12.35;;;;;;;0.28;100.00;101395.81;10192972;28;20078;-72
2024/01/19 14:13:32;;;;;;;15.73;12.35;;;;;;;0.19;100.00;101398.03;10193039;28;20085;-73
2024/01/19 14:18:30;;;;;;;13.40;12.18;;;;;;;0.16;100.00;101399.31;10192927;28;20046;-73
2024/01/19 14:23:31;;;;;;;18.55;12.05;;;;;;;0.19;100.00;101398.84;10192704;28;20045;-73
2024/01/19 14:28:28;;;;;;;18.35;11.95;;;;;;;0.33;100.00;101407.53;10192920;28;20050;-73
2024/01/19 14:33:24;;;;;;;14.95;12.13;;;;;;;0.30;100.00;101415.22;10191353;28;20038;-73
2024/01/19 14:38:21;;;;;;;16.13;12.60;;;;;;;0.33;100.00;101410.22;10191059;28;20073;-73
2024/01/19 14:43:18;;;;;;;15.75;11.52;;;;;;;0.56;100.00;101425.56;10193049;28;20045;-73
2024/01/19 14:48:16;;;;;;;14.63;11.77;;;;;;;0.55;100.00;101429.28;10191674;28;20072;-73
2024/01/19 14:53:13;;;;;;;14.57;11.98;;;;;;;0.53;100.00;101462.88;10192631;28;20156;-73
2024/01/19 14:58:10;;;;;;;14.23;11.85;;;;;;;0.62;100.00;101459.59;10191823;28;20690;-72
2024/01/19 15:03:06;;;;;;;19.50;12.63;;;;;;;0.57;100.00;101464.84;10192075;28;20042;-73
2024/01/19 15:08:03;;;;;;;13.40;11.85;;;;;;;0.57;100.00;101475.63;10184568;28;20540;-73
2024/01/19 15:13:01;;;;;;;15.13;11.27;;;;;;;0.63;100.00;101480.09;10191582;28;20053;-73
2024/01/19 15:17:58;;;;;;;22.02;10.98;;;;;;;0.63;100.00;101496.22;10192075;28;20046;-73
2024/01/19 15:22:54;;;;;;;12.45;9.38;;;;;;;0.68;100.00;101497.41;10194111;28;20050;-73
2024/01/19 15:27:53;;;;;;;10.85;9.98;;;;;;;0.62;100.00;101488.38;10199374;28;20109;-73
2024/01/19 15:32:49;;;;;;;10.07;8.90;;;;;;;0.54;100.00;101494.94;10198581;28;20046;-72
2024/01/19 15:37:46;;;;;;;20.15;9.63;;;;;;;0.60;100.00;101495.88;10197734;28;20057;-73
2024/01/19 15:42:42;;;;;;;12.13;9.45;;;;;;;0.48;100.00;101522.75;10199034;28;20042;-72
2024/01/19 15:47:39;;;;;;;9.48;8.57;;;;;;;0.57;100.00;101524.06;10196770;28;20050;-73
2024/01/19 15:52:36;;;;;;;16.02;9.27;;;;;;;0.55;100.00;101526.16;10197942;28;20053;-72
2024/01/19 15:57:32;;;;;;;8.77;7.95;;;;;;;0.52;100.00;101532.00;10198001;28;20096;-73
2024/01/19 16:02:29;;;;;;;13.45;10.43;;;;;;;0.44;100.00;101544.97;10198269;28;20096;-73
2024/01/19 16:07:25;;;;;;;10.35;9.55;;;;;;;0.40;100.00;101540.06;10197761;28;20037;-72
2024/01/19 16:12:24;;;;;;;19.35;9.63;;;;;;;0.47;100.00;101545.34;10197011;28;20037;-72
2024/01/19 16:17:21;;;;;;;13.10;10.55;;;;;;;0.49;100.00;101547.78;10197471;28;20092;-73
2024/01/19 16:22:19;;;;;;;12.57;9.38;;;;;;;0.60;100.00;101547.84;10197216;28;21313;-72
2024/01/19 16:27:16;;;;;;;10.02;8.90;;;;;;;0.54;100.00;101551.44;10197580;28;20056;-73
2024/01/19 16:32:12;;;;;;;9.68;8.70;;;;;;;0.63;100.00;101560.00;10196721;28;20053;-73
2024/01/19 16:37:09;;;;;;;12.45;9.35;;;;;;;0.60;100.00;101560.44;10195237;28;20046;-72
2024/01/19 16:42:07;;;;;;;13.05;8.48;;;;;;;0.62;100.00;101564.56;10197229;28;20100;-73
2024/01/19 16:47:04;;;;;;;9.13;8.23;;;;;;;0.61;100.00;101557.53;10195340;28;20042;-72
2024/01/19 16:52:01;;;;;;;12.63;8.68;;;;;;;0.72;100.00;101568.56;10196537;28;20050;-72
2024/01/19 16:56:57;;;;;;;14.68;8.43;;;;;;;0.85;100.00;101584.50;10195270;28;20077;-73
2024/01/19 17:01:53;;;;;;;15.25;8.45;;;;;;;0.90;100.00;101587.31;10196317;28;20053;-73
2024/01/19 17:06:50;;;;;;;13.60;9.40;;;;;;;0.92;100.00;101552.91;10194655;28;20128;-73
2024/01/19 17:11:46;;;;;;;10.63;8.55;;;;;;;0.87;100.00;101574.31;10195978;28;20073;-73
2024/01/19 17:16:43;;;;;;;16.85;9.00;;;;;;;0.95;100.00;101568.63;10194208;28;20054;-72
2024/01/19 17:21:41;;;;;;;8.82;7.95;;;;;;;0.97;100.00;101574.56;10194516;28;20484;-73
2024/01/19 17:26:42;;;;;;;13.38;9.57;;;;;;;1.01;100.00;101562.28;10194719;28;20462;-73
2024/01/19 17:31:39;;;;;;;9.38;8.05;;;;;;;1.09;100.00;101573.75;10193896;28;20073;-72
2024/01/19 17:36:36;;;;;;;9.85;7.97;;;;;;;1.10;100.00;101586.19;10194663;28;20441;-72
2024/01/19 17:41:38;;;;;;;14.52;8.32;;;;;;;1.13;100.00;101569.56;10194065;28;20133;-73
2024/01/19 17:46:36;;;;;;;11.13;7.80;;;;;;;1.11;100.00;101593.19;10193556;28;20500;-72
2024/01/19 17:51:33;;;;;;;9.38;7.90;;;;;;;1.10;100.00;101591.56;10193998;28;20521;-72
2024/01/19 17:56:31;;;;;;;10.68;7.90;;;;;;;1.16;100.00;101575.31;10193633;28;20041;-72
2024/01/19 18:01:27;;;;;;;11.65;8.27;;;;;;;1.00;100.00;101592.97;10193433;28;20052;-73
2024/01/19 18:06:23;;;;;;;16.17;8.52;;;;;;;0.94;100.00;101610.03;10190961;28;20049;-73
2024/01/19 18:11:20;;;;;;;10.82;8.10;;;;;;;0.96;100.00;101634.06;10186125;28;20089;-73
2024/01/19 18:16:17;;;;;;;9.35;8.30;;;;;;;1.05;100.00;101632.66;10192703;28;20419;-73
2024/01/19 18:21:18;;;;;;;15.07;7.70;;;;;;;1.18;100.00;101634.31;10193365;28;20064;-72
2024/01/19 18:26:15;;;;;;;13.73;7.68;;;;;;;1.23;100.00;101635.28;10192286;28;20050;-73
2024/01/19 18:31:12;;;;;;;10.68;7.93;;;;;;;1.27;100.00;101630.22;10192260;28;20469;-72
2024/01/19 18:36:09;;;;;;;7.78;7.07;;;;;;;1.26;100.00;101633.97;10192221;28;20066;-72
2024/01/19 18:41:06;;;;;;;12.68;7.38;;;;;;;1.26;100.00;101633.97;10192598;28;20049;-73
2024/01/19 18:46:02;;;;;;;10.48;7.57;;;;;;;1.20;100.00;101634.91;10192351;28;20045;-73
2024/01/19 18:50:59;;;;;;;14.65;7.90;;;;;;;1.20;100.00;101640.28;10192015;28;20146;-72
2024/01/19 18:55:55;;;;;;;8.85;7.05;;;;;;;1.12;100.00;101637.97;10191821;28;20046;-72
2024/01/19 19:00:52;;;;;;;16.65;8.00;;;;;;;1.05;100.00;101646.94;10200544;28;20049;-73
2024/01/19 19:05:49;;;;;;;11.13;8.00;;;;;;;1.03;100.00;101656.31;10200064;28;20046;-72
2024/01/19 19:10:47;;;;;;;13.60;7.57;;;;;;;1.01;100.00;101658.41;10199969;28;20049;-72
2024/01/19 19:15:44;;;;;;;11.93;8.02;;;;;;;1.07;100.00;101656.66;10199274;28;20112;-72
2024/01/19 19:20:40;;;;;;;10.90;7.70;;;;;;;1.04;100.00;101658.78;10200559;28;20440;-72
2024/01/19 19:25:36;;;;;;;9.98;7.38;;;;;;;0.98;100.00;101659.69;10198737;28;20046;-73
2024/01/19 19:30:33;;;;;;;9.70;8.32;;;;;;;0.98;100.00;101665.09;10200097;28;20124;-73
2024/01/19 19:35:30;;;;;;;8.02;7.22;;;;;;;1.03;100.00;101667.09;10198915;28;20584;-72
2024/01/19 19:40:27;;;;;;;8.32;7.50;;;;;;;1.04;100.00;101691.13;10199722;28;20132;-72
2024/01/19 19:45:23;;;;;;;14.75;7.20;;;;;;;1.04;100.00;101679.50;10198372;28;20046;-72
2024/01/19 19:50:19;;;;;;;7.65;6.80;;;;;;;1.04;100.00;101693.81;10199451;28;20089;-72
2024/01/19 19:55:16;;;;;;;10.25;7.00;;;;;;;1.07;100.00;101688.97;10195590;28;20132;-73
2024/01/19 20:00:13;;;;;;;9.48;6.78;;;;;;;1.03;100.00;101697.53;10198711;28;20050;-72
2024/01/19 20:05:13;;;;;;;10.63;7.75;;;;;;;0.90;100.00;101694.22;10195943;28;20058;-72
2024/01/19 20:10:10;;;;;;;12.45;7.57;;;;;;;0.99;100.00;101701.72;10196066;28;20069;-72
2024/01/19 20:15:08;;;;;;;7.57;6.75;;;;;;;0.95;100.00;101705.94;10195376;28;20520;-72
2024/01/19 20:20:05;;;;;;;10.57;6.97;;;;;;;0.87;100.00;101717.03;10184506;28;20050;-72
2024/01/19 20:25:02;;;;;;;8.32;6.47;;;;;;;0.95;100.00;101705.94;10196758;28;20053;-72
2024/01/19 20:29:59;;;;;;;8.07;6.63;;;;;;;0.86;100.00;101715.41;10197901;28;20398;-72
2024/01/19 20:34:56;;;;;;;11.73;6.78;;;;;;;0.83;100.00;101734.69;10196180;28;20057;-72
2024/01/19 20:39:52;;;;;;;9.95;7.15;;;;;;;0.84;100.00;101730.97;10196165;28;20099;-71
2024/01/19 20:44:49;;;;;;;8.90;7.00;;;;;;;0.76;100.00;101720.50;10196142;28;20402;-72
2024/01/19 20:49:45;;;;;;;9.40;6.00;;;;;;;0.79;100.00;101746.94;10196086;28;20041;-71
2024/01/19 20:54:42;;;;;;;8.68;7.03;;;;;;;0.72;100.00;101735.44;10195880;28;20038;-72
2024/01/19 20:59:38;;;;;;;8.98;7.45;;;;;;;0.71;100.00;101741.91;10195684;28;20057;-72
2024/01/19 21:04:35;;;;;;;8.15;7.35;;;;;;;0.70;100.00;101751.03;10195902;28;20069;-72
2024/01/19 21:09:37;;;;;;;11.85;6.60;;;;;;;0.72;100.00;101751.59;10195619;28;20042;-72
2024/01/19 21:14:39;;;;;;;10.80;6.55;;;;;;;0.70;100.00;101753.72;10196449;28;20124;-72
2024/01/19 21:19:35;;;;;;;16.48;7.55;;;;;;;0.74;100.00;101738.75;10194919;28;20399;-72
2024/01/19 21:24:32;;;;;;;7.93;6.13;;;;;;;0.77;100.00;101754.47;10195038;28;20537;-71
2024/01/19 21:29:29;;;;;;;13.77;7.47;;;;;;;0.85;100.00;101756.81;10185814;28;20053;-72
2024/01/19 21:34:25;;;;;;;11.32;6.82;;;;;;;0.91;100.00;101764.00;10193232;28;20046;-72
2024/01/19 21:39:21;;;;;;;11.88;6.28;;;;;;;0.96;100.00;101758.75;10192929;28;20049;-72
2024/01/19 21:44:18;;;;;;;11.02;6.35;;;;;;;0.94;100.00;101782.38;10194304;28;20049;-72
2024/01/19 21:49:18;;;;;;;13.07;7.55;;;;;;;0.89;100.00;101763.41;10194214;28;20050;-71
2024/01/19 21:54:14;;;;;;;7.32;6.60;;;;;;;0.85;100.00;101781.06;10193723;28;20053;-72
2024/01/19 21:59:11;;;;;;;10.07;7.68;;;;;;;0.85;100.00;101789.13;10193701;28;20050;-72
2024/01/19 22:04:08;;;;;;;13.02;7.53;;;;;;;0.76;100.00;101779.72;10189166;28;20050;-72
2024/01/19 22:09:11;;;;;;;7.95;6.72;;;;;;;0.77;100.00;101794.84;10192569;28;20137;-71
2024/01/19 22:14:08;;;;;;;11.07;7.25;;;;;;;0.69;100.00;101785.19;10192798;28;20464;-72
2024/01/19 22:19:04;;;;;;;10.93;7.47;;;;;;;0.75;100.00;101808.53;10192802;28;20417;-72
2024/01/19 22:24:01;;;;;;;9.45;7.43;;;;;;;0.83;100.00;101810.06;10192970;28;20049;-71
2024/01/19 22:28:57;;;;;;;16.55;7.43;;;;;;;0.85;100.00;101807.97;10192428;28;20041;-71